sensor_id;sensor_type;location;lat;lon;timestamp;P1;durP1;ratioP1;P2;durP2;ratioP2
71303;SDS011;59091;47.446;19.148;2022-11-24T00:01:53;18.23;;;10.23;;
71303;SDS011;59091;47.446;19.148;2022-11-24T00:04:19;16.27;;;9.50;;
71303;SDS011;59091;47.446;19.148;2022-11-24T00:06:44;15.00;;;9.43;;
71303;SDS011;59091;47.446;19.148;2022-11-24T00:09:10;16.80;;;9.38;;
71303;SDS011;59091;47.446;19.148;2022-11-24T00:11:36;17.40;;;9.95;;
71303;SDS011;59091;47.446;19.148;2022-11-24T00:14:02;15.32;;;9.40;;
71303;SDS011;59091;47.446;19.148;2022-11-24T00:16:29;17.73;;;9.65;;
71303;SDS011;59091;47.446;19.148;2022-11-24T00:19:00;14.85;;;9.02;;
71303;SDS011;59091;47.446;19.148;2022-11-24T00:21:28;16.63;;;9.38;;
71303;SDS011;59091;47.446;19.148;2022-11-24T00:23:55;14.23;;;9.32;;
71303;SDS011;59091;47.446;19.148;2022-11-24T00:26:25;18.98;;;10.00;;
71303;SDS011;59091;47.446;19.148;2022-11-24T00:28:53;18.83;;;10.15;;
71303;SDS011;59091;47.446;19.148;2022-11-24T00:31:23;25.38;;;11.05;;
71303;SDS011;59091;47.446;19.148;2022-11-24T00:33:50;21.77;;;10.70;;
71303;SDS011;59091;47.446;19.148;2022-11-24T00:36:17;20.77;;;9.85;;
71303;SDS011;59091;47.446;19.148;2022-11-24T00:38:43;22.77;;;10.52;;
71303;SDS011;59091;47.446;19.148;2022-11-24T00:41:10;17.25;;;10.07;;
71303;SDS011;59091;47.446;19.148;2022-11-24T00:43:36;19.77;;;9.45;;
71303;SDS011;59091;47.446;19.148;2022-11-24T00:46:01;15.55;;;9.57;;
71303;SDS011;59091;47.446;19.148;2022-11-24T00:48:27;15.68;;;9.45;;
71303;SDS011;59091;47.446;19.148;2022-11-24T00:50:59;18.80;;;10.02;;
71303;SDS011;59091;47.446;19.148;2022-11-24T00:53:26;18.25;;;10.27;;
71303;SDS011;59091;47.446;19.148;2022-11-24T00:55:52;15.32;;;9.85;;
71303;SDS011;59091;47.446;19.148;2022-11-24T00:58:18;19.73;;;10.35;;
71303;SDS011;59091;47.446;19.148;2022-11-24T01:00:44;19.67;;;10.40;;
71303;SDS011;59091;47.446;19.148;2022-11-24T01:03:10;16.83;;;9.90;;
71303;SDS011;59091;47.446;19.148;2022-11-24T01:05:37;20.50;;;9.85;;
71303;SDS011;59091;47.446;19.148;2022-11-24T01:08:03;20.30;;;10.07;;
71303;SDS011;59091;47.446;19.148;2022-11-24T01:10:28;17.70;;;10.57;;
71303;SDS011;59091;47.446;19.148;2022-11-24T01:12:54;23.27;;;11.50;;
71303;SDS011;59091;47.446;19.148;2022-11-24T01:15:20;19.50;;;11.45;;
71303;SDS011;59091;47.446;19.148;2022-11-24T01:17:45;20.73;;;11.25;;
71303;SDS011;59091;47.446;19.148;2022-11-24T01:20:10;18.67;;;11.27;;
71303;SDS011;59091;47.446;19.148;2022-11-24T01:22:36;23.42;;;11.27;;
71303;SDS011;59091;47.446;19.148;2022-11-24T01:25:04;26.17;;;12.05;;
71303;SDS011;59091;47.446;19.148;2022-11-24T01:27:30;22.33;;;12.20;;
71303;SDS011;59091;47.446;19.148;2022-11-24T01:29:55;21.30;;;11.48;;
71303;SDS011;59091;47.446;19.148;2022-11-24T01:32:20;22.30;;;11.85;;
71303;SDS011;59091;47.446;19.148;2022-11-24T01:34:46;25.38;;;12.98;;
71303;SDS011;59091;47.446;19.148;2022-11-24T01:37:11;26.40;;;13.35;;
71303;SDS011;59091;47.446;19.148;2022-11-24T01:39:37;24.23;;;12.80;;
71303;SDS011;59091;47.446;19.148;2022-11-24T01:42:02;24.75;;;12.15;;
71303;SDS011;59091;47.446;19.148;2022-11-24T01:44:28;26.33;;;12.20;;
71303;SDS011;59091;47.446;19.148;2022-11-24T01:49:31;23.98;;;12.35;;
71303;SDS011;59091;47.446;19.148;2022-11-24T01:52:10;21.17;;;11.45;;
71303;SDS011;59091;47.446;19.148;2022-11-24T01:54:59;24.40;;;11.90;;
71303;SDS011;59091;47.446;19.148;2022-11-24T01:57:29;22.50;;;11.70;;
71303;SDS011;59091;47.446;19.148;2022-11-24T02:00:00;22.00;;;11.27;;
71303;SDS011;59091;47.446;19.148;2022-11-24T02:02:30;25.08;;;11.95;;
71303;SDS011;59091;47.446;19.148;2022-11-24T02:04:57;22.13;;;11.85;;
71303;SDS011;59091;47.446;19.148;2022-11-24T02:07:27;22.23;;;11.60;;
71303;SDS011;59091;47.446;19.148;2022-11-24T02:09:54;22.63;;;11.68;;
71303;SDS011;59091;47.446;19.148;2022-11-24T02:12:23;23.48;;;11.27;;
71303;SDS011;59091;47.446;19.148;2022-11-24T02:14:50;21.90;;;11.27;;
71303;SDS011;59091;47.446;19.148;2022-11-24T02:17:18;19.88;;;11.30;;
71303;SDS011;59091;47.446;19.148;2022-11-24T02:19:48;18.88;;;10.50;;
71303;SDS011;59091;47.446;19.148;2022-11-24T02:24:51;21.42;;;10.82;;
71303;SDS011;59091;47.446;19.148;2022-11-24T02:27:23;18.65;;;10.43;;
71303;SDS011;59091;47.446;19.148;2022-11-24T02:29:49;23.27;;;12.52;;
71303;SDS011;59091;47.446;19.148;2022-11-24T02:32:14;22.23;;;11.52;;
71303;SDS011;59091;47.446;19.148;2022-11-24T02:34:40;23.17;;;11.30;;
71303;SDS011;59091;47.446;19.148;2022-11-24T02:37:06;25.63;;;12.93;;
71303;SDS011;59091;47.446;19.148;2022-11-24T02:39:31;25.88;;;12.50;;
71303;SDS011;59091;47.446;19.148;2022-11-24T02:41:58;27.38;;;12.63;;
71303;SDS011;59091;47.446;19.148;2022-11-24T02:44:28;24.95;;;12.43;;
71303;SDS011;59091;47.446;19.148;2022-11-24T02:47:02;27.83;;;13.48;;
71303;SDS011;59091;47.446;19.148;2022-11-24T02:49:30;23.67;;;12.27;;
71303;SDS011;59091;47.446;19.148;2022-11-24T02:51:55;24.83;;;13.63;;
71303;SDS011;59091;47.446;19.148;2022-11-24T02:54:21;28.00;;;13.50;;
71303;SDS011;59091;47.446;19.148;2022-11-24T02:56:46;27.85;;;13.15;;
71303;SDS011;59091;47.446;19.148;2022-11-24T02:59:12;26.85;;;13.70;;
71303;SDS011;59091;47.446;19.148;2022-11-24T03:01:37;28.08;;;13.80;;
71303;SDS011;59091;47.446;19.148;2022-11-24T03:04:02;34.05;;;15.30;;
71303;SDS011;59091;47.446;19.148;2022-11-24T03:06:28;32.15;;;16.17;;
71303;SDS011;59091;47.446;19.148;2022-11-24T03:08:53;33.17;;;15.40;;
71303;SDS011;59091;47.446;19.148;2022-11-24T03:11:19;30.63;;;15.23;;
71303;SDS011;59091;47.446;19.148;2022-11-24T03:13:44;32.60;;;15.02;;
71303;SDS011;59091;47.446;19.148;2022-11-24T03:16:09;29.20;;;15.32;;
71303;SDS011;59091;47.446;19.148;2022-11-24T03:18:35;28.55;;;15.77;;
71303;SDS011;59091;47.446;19.148;2022-11-24T03:21:01;34.28;;;16.15;;
71303;SDS011;59091;47.446;19.148;2022-11-24T03:23:26;38.40;;;17.35;;
71303;SDS011;59091;47.446;19.148;2022-11-24T03:25:51;31.30;;;16.08;;
71303;SDS011;59091;47.446;19.148;2022-11-24T03:28:17;38.72;;;18.65;;
71303;SDS011;59091;47.446;19.148;2022-11-24T03:30:42;38.53;;;18.10;;
71303;SDS011;59091;47.446;19.148;2022-11-24T03:33:07;43.00;;;19.00;;
71303;SDS011;59091;47.446;19.148;2022-11-24T03:35:33;51.20;;;20.65;;
71303;SDS011;59091;47.446;19.148;2022-11-24T03:37:58;44.55;;;21.15;;
71303;SDS011;59091;47.446;19.148;2022-11-24T03:40:23;48.03;;;21.85;;
71303;SDS011;59091;47.446;19.148;2022-11-24T03:42:49;52.13;;;21.40;;
71303;SDS011;59091;47.446;19.148;2022-11-24T03:45:14;55.90;;;23.63;;
71303;SDS011;59091;47.446;19.148;2022-11-24T03:47:40;50.72;;;22.50;;
71303;SDS011;59091;47.446;19.148;2022-11-24T03:50:05;56.40;;;23.75;;
71303;SDS011;59091;47.446;19.148;2022-11-24T03:52:31;45.53;;;21.45;;
71303;SDS011;59091;47.446;19.148;2022-11-24T03:54:56;54.58;;;22.77;;
71303;SDS011;59091;47.446;19.148;2022-11-24T03:57:21;48.67;;;22.02;;
71303;SDS011;59091;47.446;19.148;2022-11-24T03:59:47;48.47;;;22.20;;
71303;SDS011;59091;47.446;19.148;2022-11-24T04:02:12;55.33;;;21.95;;
71303;SDS011;59091;47.446;19.148;2022-11-24T04:04:37;50.28;;;23.20;;
71303;SDS011;59091;47.446;19.148;2022-11-24T04:07:03;43.67;;;21.70;;
71303;SDS011;59091;47.446;19.148;2022-11-24T04:09:29;50.42;;;22.63;;
71303;SDS011;59091;47.446;19.148;2022-11-24T04:11:54;50.17;;;22.13;;
71303;SDS011;59091;47.446;19.148;2022-11-24T04:14:38;53.38;;;21.55;;
71303;SDS011;59091;47.446;19.148;2022-11-24T04:17:04;49.05;;;22.23;;
71303;SDS011;59091;47.446;19.148;2022-11-24T04:19:29;51.25;;;22.52;;
71303;SDS011;59091;47.446;19.148;2022-11-24T04:21:55;54.47;;;23.65;;
71303;SDS011;59091;47.446;19.148;2022-11-24T04:24:21;48.58;;;23.30;;
71303;SDS011;59091;47.446;19.148;2022-11-24T04:26:47;54.53;;;23.88;;
71303;SDS011;59091;47.446;19.148;2022-11-24T04:29:12;53.15;;;24.40;;
71303;SDS011;59091;47.446;19.148;2022-11-24T04:31:37;53.63;;;25.13;;
71303;SDS011;59091;47.446;19.148;2022-11-24T04:34:03;54.40;;;23.83;;
71303;SDS011;59091;47.446;19.148;2022-11-24T04:36:28;62.45;;;25.92;;
71303;SDS011;59091;47.446;19.148;2022-11-24T04:38:54;59.42;;;26.65;;
71303;SDS011;59091;47.446;19.148;2022-11-24T04:41:19;58.80;;;25.55;;
71303;SDS011;59091;47.446;19.148;2022-11-24T04:43:47;60.63;;;25.88;;
71303;SDS011;59091;47.446;19.148;2022-11-24T04:46:13;53.03;;;25.27;;
71303;SDS011;59091;47.446;19.148;2022-11-24T04:48:38;63.15;;;27.55;;
71303;SDS011;59091;47.446;19.148;2022-11-24T04:51:04;68.63;;;26.17;;
71303;SDS011;59091;47.446;19.148;2022-11-24T04:53:30;57.65;;;27.13;;
71303;SDS011;59091;47.446;19.148;2022-11-24T04:55:55;61.17;;;26.90;;
71303;SDS011;59091;47.446;19.148;2022-11-24T04:58:21;64.10;;;28.40;;
71303;SDS011;59091;47.446;19.148;2022-11-24T05:00:46;61.08;;;27.75;;
71303;SDS011;59091;47.446;19.148;2022-11-24T05:03:11;58.20;;;26.08;;
71303;SDS011;59091;47.446;19.148;2022-11-24T05:05:37;64.15;;;27.25;;
71303;SDS011;59091;47.446;19.148;2022-11-24T05:08:02;59.78;;;26.42;;
71303;SDS011;59091;47.446;19.148;2022-11-24T05:10:28;64.57;;;27.27;;
71303;SDS011;59091;47.446;19.148;2022-11-24T05:12:59;64.03;;;27.17;;
71303;SDS011;59091;47.446;19.148;2022-11-24T05:15:25;61.63;;;25.75;;
71303;SDS011;59091;47.446;19.148;2022-11-24T05:17:51;62.33;;;26.25;;
71303;SDS011;59091;47.446;19.148;2022-11-24T05:20:16;56.40;;;25.10;;
71303;SDS011;59091;47.446;19.148;2022-11-24T05:22:42;60.63;;;27.48;;
71303;SDS011;59091;47.446;19.148;2022-11-24T05:25:08;67.13;;;26.50;;
71303;SDS011;59091;47.446;19.148;2022-11-24T05:27:34;65.45;;;26.42;;
71303;SDS011;59091;47.446;19.148;2022-11-24T05:29:59;62.95;;;25.77;;
71303;SDS011;59091;47.446;19.148;2022-11-24T05:32:25;73.18;;;28.27;;
71303;SDS011;59091;47.446;19.148;2022-11-24T05:34:50;62.30;;;26.40;;
71303;SDS011;59091;47.446;19.148;2022-11-24T05:37:17;66.28;;;27.63;;
71303;SDS011;59091;47.446;19.148;2022-11-24T05:39:43;67.05;;;27.10;;
71303;SDS011;59091;47.446;19.148;2022-11-24T05:42:09;68.43;;;26.85;;
71303;SDS011;59091;47.446;19.148;2022-11-24T05:44:53;68.55;;;26.70;;
71303;SDS011;59091;47.446;19.148;2022-11-24T05:47:19;69.80;;;27.80;;
71303;SDS011;59091;47.446;19.148;2022-11-24T05:49:45;66.65;;;27.25;;
71303;SDS011;59091;47.446;19.148;2022-11-24T05:52:10;66.28;;;26.52;;
71303;SDS011;59091;47.446;19.148;2022-11-24T05:54:36;67.85;;;27.30;;
71303;SDS011;59091;47.446;19.148;2022-11-24T05:57:01;73.53;;;26.92;;
71303;SDS011;59091;47.446;19.148;2022-11-24T05:59:27;67.65;;;26.48;;
71303;SDS011;59091;47.446;19.148;2022-11-24T06:01:52;69.35;;;26.35;;
71303;SDS011;59091;47.446;19.148;2022-11-24T06:04:18;66.25;;;26.48;;
71303;SDS011;59091;47.446;19.148;2022-11-24T06:06:44;63.55;;;26.13;;
71303;SDS011;59091;47.446;19.148;2022-11-24T06:09:10;62.03;;;27.55;;
71303;SDS011;59091;47.446;19.148;2022-11-24T06:11:36;61.25;;;25.33;;
71303;SDS011;59091;47.446;19.148;2022-11-24T06:14:01;67.72;;;26.40;;
71303;SDS011;59091;47.446;19.148;2022-11-24T06:16:26;63.78;;;24.85;;
71303;SDS011;59091;47.446;19.148;2022-11-24T06:18:52;64.75;;;23.23;;
71303;SDS011;59091;47.446;19.148;2022-11-24T06:21:17;56.70;;;24.13;;
71303;SDS011;59091;47.446;19.148;2022-11-24T06:23:46;63.13;;;24.20;;
71303;SDS011;59091;47.446;19.148;2022-11-24T06:26:12;58.53;;;23.67;;
71303;SDS011;59091;47.446;19.148;2022-11-24T06:28:37;61.75;;;22.98;;
71303;SDS011;59091;47.446;19.148;2022-11-24T06:31:04;58.80;;;22.23;;
71303;SDS011;59091;47.446;19.148;2022-11-24T06:33:30;53.17;;;21.52;;
71303;SDS011;59091;47.446;19.148;2022-11-24T06:36:01;56.30;;;21.65;;
71303;SDS011;59091;47.446;19.148;2022-11-24T06:38:28;50.72;;;21.42;;
71303;SDS011;59091;47.446;19.148;2022-11-24T06:40:58;56.72;;;22.15;;
71303;SDS011;59091;47.446;19.148;2022-11-24T06:43:28;61.40;;;22.70;;
71303;SDS011;59091;47.446;19.148;2022-11-24T06:45:54;54.40;;;21.95;;
71303;SDS011;59091;47.446;19.148;2022-11-24T06:48:20;48.00;;;20.00;;
71303;SDS011;59091;47.446;19.148;2022-11-24T06:50:46;53.00;;;20.13;;
71303;SDS011;59091;47.446;19.148;2022-11-24T06:53:11;52.97;;;20.33;;
71303;SDS011;59091;47.446;19.148;2022-11-24T06:55:37;48.70;;;20.38;;
71303;SDS011;59091;47.446;19.148;2022-11-24T06:58:03;54.95;;;22.13;;
71303;SDS011;59091;47.446;19.148;2022-11-24T07:00:28;60.67;;;22.83;;
71303;SDS011;59091;47.446;19.148;2022-11-24T07:02:56;52.90;;;21.63;;
71303;SDS011;59091;47.446;19.148;2022-11-24T07:05:22;47.47;;;20.15;;
71303;SDS011;59091;47.446;19.148;2022-11-24T07:07:48;47.15;;;20.50;;
71303;SDS011;59091;47.446;19.148;2022-11-24T07:10:13;54.08;;;20.85;;
71303;SDS011;59091;47.446;19.148;2022-11-24T07:12:39;49.22;;;20.42;;
71303;SDS011;59091;47.446;19.148;2022-11-24T07:15:04;47.80;;;20.23;;
71303;SDS011;59091;47.446;19.148;2022-11-24T07:17:34;45.92;;;19.65;;
71303;SDS011;59091;47.446;19.148;2022-11-24T07:20:00;52.63;;;20.65;;
71303;SDS011;59091;47.446;19.148;2022-11-24T07:22:25;46.67;;;19.83;;
71303;SDS011;59091;47.446;19.148;2022-11-24T07:24:50;50.40;;;20.17;;
71303;SDS011;59091;47.446;19.148;2022-11-24T07:27:16;48.35;;;20.17;;
71303;SDS011;59091;47.446;19.148;2022-11-24T07:29:41;46.75;;;20.60;;
71303;SDS011;59091;47.446;19.148;2022-11-24T07:32:06;53.80;;;20.40;;
71303;SDS011;59091;47.446;19.148;2022-11-24T07:34:32;46.75;;;20.52;;
71303;SDS011;59091;47.446;19.148;2022-11-24T07:36:57;52.92;;;19.85;;
71303;SDS011;59091;47.446;19.148;2022-11-24T07:39:23;48.60;;;18.90;;
71303;SDS011;59091;47.446;19.148;2022-11-24T07:41:48;43.17;;;17.67;;
71303;SDS011;59091;47.446;19.148;2022-11-24T07:44:13;51.55;;;18.52;;
71303;SDS011;59091;47.446;19.148;2022-11-24T07:46:39;46.20;;;17.27;;
71303;SDS011;59091;47.446;19.148;2022-11-24T07:49:04;42.17;;;17.05;;
71303;SDS011;59091;47.446;19.148;2022-11-24T07:51:30;37.17;;;14.60;;
71303;SDS011;59091;47.446;19.148;2022-11-24T07:53:55;40.75;;;16.98;;
71303;SDS011;59091;47.446;19.148;2022-11-24T07:56:21;45.40;;;17.30;;
71303;SDS011;59091;47.446;19.148;2022-11-24T07:58:46;43.10;;;17.23;;
71303;SDS011;59091;47.446;19.148;2022-11-24T08:01:12;40.97;;;16.38;;
71303;SDS011;59091;47.446;19.148;2022-11-24T08:03:40;41.90;;;17.92;;
71303;SDS011;59091;47.446;19.148;2022-11-24T08:06:06;40.83;;;17.20;;
71303;SDS011;59091;47.446;19.148;2022-11-24T08:08:32;41.03;;;16.35;;
71303;SDS011;59091;47.446;19.148;2022-11-24T08:10:57;42.63;;;16.95;;
71303;SDS011;59091;47.446;19.148;2022-11-24T08:13:27;34.72;;;16.75;;
71303;SDS011;59091;47.446;19.148;2022-11-24T08:15:52;43.47;;;15.93;;
71303;SDS011;59091;47.446;19.148;2022-11-24T08:18:18;39.92;;;16.67;;
71303;SDS011;59091;47.446;19.148;2022-11-24T08:20:43;35.15;;;16.20;;
71303;SDS011;59091;47.446;19.148;2022-11-24T08:23:08;40.03;;;16.20;;
71303;SDS011;59091;47.446;19.148;2022-11-24T08:25:34;45.70;;;17.50;;
71303;SDS011;59091;47.446;19.148;2022-11-24T08:28:01;37.95;;;17.33;;
71303;SDS011;59091;47.446;19.148;2022-11-24T08:30:28;43.35;;;16.85;;
71303;SDS011;59091;47.446;19.148;2022-11-24T08:32:54;41.00;;;17.60;;
71303;SDS011;59091;47.446;19.148;2022-11-24T08:35:19;44.78;;;17.77;;
71303;SDS011;59091;47.446;19.148;2022-11-24T08:37:45;41.13;;;16.45;;
71303;SDS011;59091;47.446;19.148;2022-11-24T08:40:11;38.65;;;17.13;;
71303;SDS011;59091;47.446;19.148;2022-11-24T08:42:36;42.45;;;17.40;;
71303;SDS011;59091;47.446;19.148;2022-11-24T08:45:02;39.90;;;17.00;;
71303;SDS011;59091;47.446;19.148;2022-11-24T08:47:28;44.63;;;19.40;;
71303;SDS011;59091;47.446;19.148;2022-11-24T08:49:53;41.30;;;18.05;;
71303;SDS011;59091;47.446;19.148;2022-11-24T08:52:19;43.35;;;17.50;;
71303;SDS011;59091;47.446;19.148;2022-11-24T08:54:44;45.53;;;18.40;;
71303;SDS011;59091;47.446;19.148;2022-11-24T08:57:12;44.38;;;18.75;;
71303;SDS011;59091;47.446;19.148;2022-11-24T08:59:38;42.67;;;17.00;;
71303;SDS011;59091;47.446;19.148;2022-11-24T09:02:04;39.35;;;15.23;;
71303;SDS011;59091;47.446;19.148;2022-11-24T09:04:30;40.45;;;17.23;;
71303;SDS011;59091;47.446;19.148;2022-11-24T09:06:56;48.42;;;19.60;;
71303;SDS011;59091;47.446;19.148;2022-11-24T09:09:22;46.95;;;18.45;;
71303;SDS011;59091;47.446;19.148;2022-11-24T09:11:47;41.75;;;18.27;;
71303;SDS011;59091;47.446;19.148;2022-11-24T09:14:12;50.42;;;19.52;;
71303;SDS011;59091;47.446;19.148;2022-11-24T09:16:38;54.67;;;20.65;;
71303;SDS011;59091;47.446;19.148;2022-11-24T09:19:04;49.00;;;20.02;;
71303;SDS011;59091;47.446;19.148;2022-11-24T09:21:32;55.53;;;21.10;;
71303;SDS011;59091;47.446;19.148;2022-11-24T09:24:02;51.45;;;19.73;;
71303;SDS011;59091;47.446;19.148;2022-11-24T09:26:29;46.80;;;19.30;;
71303;SDS011;59091;47.446;19.148;2022-11-24T09:28:56;54.13;;;19.85;;
71303;SDS011;59091;47.446;19.148;2022-11-24T09:31:23;50.67;;;20.30;;
71303;SDS011;59091;47.446;19.148;2022-11-24T09:33:51;48.92;;;18.85;;
71303;SDS011;59091;47.446;19.148;2022-11-24T09:36:17;45.83;;;19.33;;
71303;SDS011;59091;47.446;19.148;2022-11-24T09:38:42;35.67;;;17.33;;
71303;SDS011;59091;47.446;19.148;2022-11-24T09:43:40;49.10;;;18.80;;
71303;SDS011;59091;47.446;19.148;2022-11-24T09:46:26;45.80;;;20.17;;
71303;SDS011;59091;47.446;19.148;2022-11-24T09:48:56;43.50;;;18.17;;
71303;SDS011;59091;47.446;19.148;2022-11-24T09:51:25;42.42;;;17.80;;
71303;SDS011;59091;47.446;19.148;2022-11-24T09:56:22;42.85;;;17.50;;
71303;SDS011;59091;47.446;19.148;2022-11-24T10:01:18;41.20;;;17.17;;
71303;SDS011;59091;47.446;19.148;2022-11-24T10:03:53;41.72;;;17.50;;
71303;SDS011;59091;47.446;19.148;2022-11-24T10:06:26;42.50;;;17.35;;
71303;SDS011;59091;47.446;19.148;2022-11-24T10:11:42;42.60;;;17.30;;
71303;SDS011;59091;47.446;19.148;2022-11-24T10:14:18;39.13;;;16.88;;
71303;SDS011;59091;47.446;19.148;2022-11-24T10:22:59;37.10;;;15.68;;
71303;SDS011;59091;47.446;19.148;2022-11-24T10:28:55;38.83;;;16.15;;
71303;SDS011;59091;47.446;19.148;2022-11-24T10:31:31;41.90;;;17.92;;
71303;SDS011;59091;47.446;19.148;2022-11-24T10:34:18;39.20;;;16.88;;
71303;SDS011;59091;47.446;19.148;2022-11-24T10:36:56;42.97;;;16.95;;
71303;SDS011;59091;47.446;19.148;2022-11-24T10:42:17;39.42;;;16.13;;
71303;SDS011;59091;47.446;19.148;2022-11-24T10:47:40;35.55;;;16.70;;
71303;SDS011;59091;47.446;19.148;2022-11-24T10:52:59;37.00;;;16.63;;
71303;SDS011;59091;47.446;19.148;2022-11-24T11:00:54;43.60;;;17.33;;
71303;SDS011;59091;47.446;19.148;2022-11-24T11:03:22;38.42;;;16.88;;
71303;SDS011;59091;47.446;19.148;2022-11-24T11:05:56;38.25;;;15.90;;
71303;SDS011;59091;47.446;19.148;2022-11-24T11:08:28;43.33;;;17.70;;
71303;SDS011;59091;47.446;19.148;2022-11-24T11:13:50;37.55;;;16.10;;
71303;SDS011;59091;47.446;19.148;2022-11-24T11:16:36;46.90;;;17.40;;
71303;SDS011;59091;47.446;19.148;2022-11-24T11:22:00;40.78;;;17.02;;
71303;SDS011;59091;47.446;19.148;2022-11-24T11:24:35;34.38;;;14.95;;
71303;SDS011;59091;47.446;19.148;2022-11-24T11:27:04;38.17;;;15.82;;
71303;SDS011;59091;47.446;19.148;2022-11-24T11:29:40;40.63;;;15.98;;
71303;SDS011;59091;47.446;19.148;2022-11-24T11:32:15;35.13;;;15.75;;
71303;SDS011;59091;47.446;19.148;2022-11-24T11:34:43;37.88;;;16.00;;
71303;SDS011;59091;47.446;19.148;2022-11-24T11:37:09;35.60;;;14.50;;
71303;SDS011;59091;47.446;19.148;2022-11-24T11:39:38;35.53;;;15.02;;
71303;SDS011;59091;47.446;19.148;2022-11-24T11:44:42;32.40;;;14.77;;
71303;SDS011;59091;47.446;19.148;2022-11-24T11:47:23;28.80;;;14.02;;
71303;SDS011;59091;47.446;19.148;2022-11-24T11:49:52;28.23;;;13.30;;
71303;SDS011;59091;47.446;19.148;2022-11-24T11:55:02;27.00;;;13.55;;
71303;SDS011;59091;47.446;19.148;2022-11-24T12:06:49;27.73;;;13.20;;
71303;SDS011;59091;47.446;19.148;2022-11-24T12:09:41;27.33;;;12.98;;
71303;SDS011;59091;47.446;19.148;2022-11-24T12:12:34;28.52;;;12.77;;
71303;SDS011;59091;47.446;19.148;2022-11-24T12:15:31;29.48;;;13.10;;
71303;SDS011;59091;47.446;19.148;2022-11-24T12:18:27;23.60;;;11.98;;
71303;SDS011;59091;47.446;19.148;2022-11-24T12:37:39;24.67;;;10.93;;
71303;SDS011;59091;47.446;19.148;2022-11-24T12:45:57;26.73;;;11.48;;
71303;SDS011;59091;47.446;19.148;2022-11-24T12:51:12;26.88;;;12.88;;
71303;SDS011;59091;47.446;19.148;2022-11-24T12:53:45;22.42;;;11.50;;
71303;SDS011;59091;47.446;19.148;2022-11-24T12:56:14;24.40;;;12.13;;
71303;SDS011;59091;47.446;19.148;2022-11-24T13:07:14;24.13;;;11.23;;
71303;SDS011;59091;47.446;19.148;2022-11-24T13:13:08;32.83;;;11.75;;
71303;SDS011;59091;47.446;19.148;2022-11-24T13:16:20;26.23;;;11.70;;
71303;SDS011;59091;47.446;19.148;2022-11-24T13:31:52;23.92;;;11.15;;
71303;SDS011;59091;47.446;19.148;2022-11-24T13:37:02;19.42;;;10.55;;
71303;SDS011;59091;47.446;19.148;2022-11-24T13:39:47;25.05;;;11.32;;
71303;SDS011;59091;47.446;19.148;2022-11-24T13:42:16;22.38;;;10.98;;
71303;SDS011;59091;47.446;19.148;2022-11-24T13:44:50;21.40;;;10.43;;
71303;SDS011;59091;47.446;19.148;2022-11-24T13:47:37;21.63;;;9.88;;
71303;SDS011;59091;47.446;19.148;2022-11-24T13:50:13;24.45;;;10.60;;
71303;SDS011;59091;47.446;19.148;2022-11-24T13:53:08;19.17;;;10.13;;
71303;SDS011;59091;47.446;19.148;2022-11-24T13:56:29;22.52;;;11.07;;
71303;SDS011;59091;47.446;19.148;2022-11-24T13:58:38;23.25;;;10.95;;
71303;SDS011;59091;47.446;19.148;2022-11-24T14:01:06;23.45;;;11.13;;
71303;SDS011;59091;47.446;19.148;2022-11-24T14:09:00;19.83;;;10.20;;
71303;SDS011;59091;47.446;19.148;2022-11-24T14:11:37;20.08;;;10.82;;
71303;SDS011;59091;47.446;19.148;2022-11-24T14:14:11;28.00;;;11.13;;
71303;SDS011;59091;47.446;19.148;2022-11-24T14:16:38;21.02;;;11.05;;
71303;SDS011;59091;47.446;19.148;2022-11-24T14:19:08;21.65;;;10.52;;
71303;SDS011;59091;47.446;19.148;2022-11-24T14:21:37;21.38;;;10.93;;
71303;SDS011;59091;47.446;19.148;2022-11-24T14:26:37;25.45;;;12.30;;
71303;SDS011;59091;47.446;19.148;2022-11-24T14:31:40;23.55;;;10.90;;
71303;SDS011;59091;47.446;19.148;2022-11-24T14:34:19;21.38;;;10.77;;
71303;SDS011;59091;47.446;19.148;2022-11-24T14:36:49;23.33;;;11.50;;
71303;SDS011;59091;47.446;19.148;2022-11-24T14:39:17;22.52;;;11.00;;
71303;SDS011;59091;47.446;19.148;2022-11-24T14:42:00;22.10;;;10.70;;
71303;SDS011;59091;47.446;19.148;2022-11-24T14:44:28;25.48;;;10.93;;
71303;SDS011;59091;47.446;19.148;2022-11-24T14:47:04;20.02;;;10.75;;
71303;SDS011;59091;47.446;19.148;2022-11-24T14:49:32;17.77;;;10.25;;
71303;SDS011;59091;47.446;19.148;2022-11-24T14:52:02;23.10;;;10.02;;
71303;SDS011;59091;47.446;19.148;2022-11-24T14:54:33;21.48;;;11.35;;
71303;SDS011;59091;47.446;19.148;2022-11-24T14:57:02;23.73;;;11.18;;
71303;SDS011;59091;47.446;19.148;2022-11-24T14:59:30;22.17;;;11.50;;
71303;SDS011;59091;47.446;19.148;2022-11-24T15:01:58;27.60;;;12.00;;
71303;SDS011;59091;47.446;19.148;2022-11-24T15:04:25;23.45;;;11.55;;
71303;SDS011;59091;47.446;19.148;2022-11-24T15:09:51;23.33;;;12.13;;
71303;SDS011;59091;47.446;19.148;2022-11-24T15:12:24;21.20;;;10.45;;
71303;SDS011;59091;47.446;19.148;2022-11-24T15:17:50;29.00;;;12.43;;
71303;SDS011;59091;47.446;19.148;2022-11-24T15:25:50;22.48;;;12.27;;
71303;SDS011;59091;47.446;19.148;2022-11-24T15:28:17;24.48;;;11.70;;
71303;SDS011;59091;47.446;19.148;2022-11-24T15:30:43;26.40;;;12.55;;
71303;SDS011;59091;47.446;19.148;2022-11-24T15:33:13;25.60;;;12.70;;
71303;SDS011;59091;47.446;19.148;2022-11-24T15:35:43;25.40;;;12.73;;
71303;SDS011;59091;47.446;19.148;2022-11-24T15:38:08;29.27;;;11.68;;
71303;SDS011;59091;47.446;19.148;2022-11-24T15:40:37;24.13;;;12.05;;
71303;SDS011;59091;47.446;19.148;2022-11-24T15:45:54;29.02;;;12.15;;
71303;SDS011;59091;47.446;19.148;2022-11-24T15:48:20;25.13;;;12.60;;
71303;SDS011;59091;47.446;19.148;2022-11-24T15:50:45;30.70;;;12.57;;
71303;SDS011;59091;47.446;19.148;2022-11-24T15:53:19;27.23;;;12.25;;
71303;SDS011;59091;47.446;19.148;2022-11-24T15:55:47;26.40;;;12.85;;
71303;SDS011;59091;47.446;19.148;2022-11-24T15:58:14;24.65;;;12.02;;
71303;SDS011;59091;47.446;19.148;2022-11-24T16:00:40;29.27;;;13.52;;
71303;SDS011;59091;47.446;19.148;2022-11-24T16:03:06;29.00;;;13.05;;
71303;SDS011;59091;47.446;19.148;2022-11-24T16:05:32;26.75;;;12.32;;
71303;SDS011;59091;47.446;19.148;2022-11-24T16:07:58;22.92;;;11.35;;
71303;SDS011;59091;47.446;19.148;2022-11-24T16:10:24;26.10;;;11.60;;
71303;SDS011;59091;47.446;19.148;2022-11-24T16:12:53;23.05;;;12.65;;
71303;SDS011;59091;47.446;19.148;2022-11-24T16:15:19;28.35;;;13.70;;
71303;SDS011;59091;47.446;19.148;2022-11-24T16:17:44;24.85;;;12.48;;
71303;SDS011;59091;47.446;19.148;2022-11-24T16:20:10;29.40;;;12.43;;
71303;SDS011;59091;47.446;19.148;2022-11-24T16:22:36;31.98;;;13.00;;
71303;SDS011;59091;47.446;19.148;2022-11-24T16:25:01;26.85;;;12.05;;
71303;SDS011;59091;47.446;19.148;2022-11-24T16:27:28;28.70;;;13.30;;
71303;SDS011;59091;47.446;19.148;2022-11-24T16:29:54;26.63;;;13.07;;
71303;SDS011;59091;47.446;19.148;2022-11-24T16:32:19;29.30;;;12.68;;